^^
Saratoga-Weather Station Historical Data
 
Daily Summary for August 25, 2019 Units:  Metric    English   Both
Daily Weekly Monthly Yearly Custom
  Current: High: Low: Average:
Temperature: 18.9 °C 20.2 °C 16.7 °C 17.8 °C
Dew Point: 16.9 °C 17.1 °C 14.5 °C 15.6 °C
Humidity: 88% 91% 78% 87%
Wind Speed: 3.2km/h 3.2km/h 0.0km/h 0.1km/h
Wind Gust: 8.0km/h 8.0km/h - -
WindNNE - - NE
Pressure: 1015.7 hPa 1015.8 hPa 1014.0 hPa -
Precipitation: 0.0 mm      
Historical Graphs
 
 
Tabular Data for August 25, 2019
Time Temperature Dew Point Pressure Wind Wind Speed Wind Gust Humidity Rainfall Rate (Hourly) solar
00:00 20.2 °C 16.2 °C 1014.2 hPa Calm     78% 0.0 mm 0.00 W/m2
00:05 20.1 °C 16.3 °C 1014.1 hPa Calm     79% 0.0 mm 0.00 W/m2
00:10 19.9 °C 16.2 °C 1014.2 hPa Calm     79% 0.0 mm 0.00 W/m2
00:15 19.9 °C 16.3 °C 1014.3 hPa Calm     80% 0.0 mm 0.00 W/m2
00:20 19.8 °C 16.3 °C 1014.3 hPa Calm     80% 0.0 mm 0.00 W/m2
00:25 19.7 °C 16.1 °C 1014.3 hPa Calm     80% 0.0 mm 0.00 W/m2
00:30 19.6 °C 16.1 °C 1014.3 hPa Calm     80% 0.0 mm 0.00 W/m2
00:35 19.5 °C 15.9 °C 1014.2 hPa Calm     80% 0.0 mm 0.00 W/m2
00:40 19.3 °C 16.0 °C 1014.3 hPa Calm     81% 0.0 mm 0.00 W/m2
00:45 19.2 °C 15.9 °C 1014.4 hPa Calm     81% 0.0 mm 0.00 W/m2
00:50 19.1 °C 15.8 °C 1014.4 hPa Calm     81% 0.0 mm 0.00 W/m2
00:55 19.1 °C 15.9 °C 1014.4 hPa Calm     82% 0.0 mm 0.00 W/m2
01:00 18.9 °C 15.8 °C 1014.3 hPa Calm     82% 0.0 mm 0.00 W/m2
01:05 18.9 °C 15.7 °C 1014.2 hPa Calm     82% 0.0 mm 0.00 W/m2
01:10 18.8 °C 15.7 °C 1014.2 hPa Calm     82% 0.0 mm 0.00 W/m2
01:15 18.8 °C 15.7 °C 1014.2 hPa Calm     82% 0.0 mm 0.00 W/m2
01:20 18.7 °C 15.7 °C 1014.2 hPa Calm     83% 0.0 mm 0.00 W/m2
01:25 18.6 °C 15.7 °C 1014.2 hPa Calm     83% 0.0 mm 0.00 W/m2
01:30 18.6 °C 15.7 °C 1014.2 hPa Calm     83% 0.0 mm 0.00 W/m2
01:35 18.5 °C 15.7 °C 1014.2 hPa Calm     84% 0.0 mm 0.00 W/m2
01:40 18.5 °C 15.7 °C 1014.2 hPa Calm     84% 0.0 mm 0.00 W/m2
01:45 18.4 °C 15.7 °C 1014.2 hPa Calm     84% 0.0 mm 0.00 W/m2
01:50 18.4 °C 15.6 °C 1014.2 hPa Calm     84% 0.0 mm 0.00 W/m2
01:55 18.3 °C 15.6 °C 1014.2 hPa Calm     84% 0.0 mm 0.00 W/m2
02:00 18.2 °C 15.5 °C 1014.2 hPa Calm     84% 0.0 mm 0.00 W/m2
02:05 18.2 °C 15.4 °C 1014.1 hPa Calm     84% 0.0 mm 0.00 W/m2
02:10 18.2 °C 15.6 °C 1014.1 hPa Calm     85% 0.0 mm 0.00 W/m2
02:15 18.1 °C 15.5 °C 1014.1 hPa Calm     85% 0.0 mm 0.00 W/m2
02:20 18.1 °C 15.5 °C 1014.1 hPa Calm     85% 0.0 mm 0.00 W/m2
02:25 17.9 °C 15.4 °C 1014.1 hPa Calm     85% 0.0 mm 0.00 W/m2
02:30 17.9 °C 15.3 °C 1014.2 hPa Calm     85% 0.0 mm 0.00 W/m2
02:35 17.9 °C 15.3 °C 1014.2 hPa Calm     85% 0.0 mm 0.00 W/m2
02:40 17.8 °C 15.2 °C 1014.2 hPa Calm     85% 0.0 mm 0.00 W/m2
02:45 17.7 °C 15.2 °C 1014.2 hPa Calm     85% 0.0 mm 0.00 W/m2
02:50 17.7 °C 15.3 °C 1014.2 hPa Calm     86% 0.0 mm 0.00 W/m2
02:55 17.6 °C 15.2 °C 1014.2 hPa Calm     86% 0.0 mm 0.00 W/m2
03:00 17.6 °C 15.2 °C 1014.2 hPa Calm     86% 0.0 mm 0.00 W/m2
03:05 17.5 °C 15.1 °C 1014.2 hPa Calm     86% 0.0 mm 0.00 W/m2
03:10 17.4 °C 15.1 °C 1014.3 hPa Calm     86% 0.0 mm 0.00 W/m2
03:15 17.4 °C 15.1 °C 1014.3 hPa Calm     86% 0.0 mm 0.00 W/m2
03:20 17.4 °C 15.1 °C 1014.3 hPa Calm     86% 0.0 mm 0.00 W/m2
03:25 17.3 °C 14.9 °C 1014.3 hPa Calm     86% 0.0 mm 0.00 W/m2
03:30 17.3 °C 14.9 °C 1014.3 hPa Calm     86% 0.0 mm 0.00 W/m2
03:35 17.3 °C 14.9 °C 1014.2 hPa Calm     86% 0.0 mm 0.00 W/m2
03:40 17.2 °C 14.8 °C 1014.2 hPa Calm     86% 0.0 mm 0.00 W/m2
03:45 17.2 °C 14.8 °C 1014.1 hPa Calm     86% 0.0 mm 0.00 W/m2
03:50 17.1 °C 14.7 °C 1014.1 hPa Calm     86% 0.0 mm 0.00 W/m2
03:55 17.1 °C 14.9 °C 1014.1 hPa Calm     87% 0.0 mm 0.00 W/m2
04:00 17.0 °C 14.8 °C 1014.0 hPa Calm     87% 0.0 mm 0.00 W/m2
04:05 17.0 °C 14.8 °C 1014.1 hPa Calm     87% 0.0 mm 0.00 W/m2
04:10 16.9 °C 14.7 °C 1014.1 hPa Calm     87% 0.0 mm 0.00 W/m2
04:15 16.9 °C 14.7 °C 1014.1 hPa Calm     87% 0.0 mm 0.00 W/m2
04:20 16.8 °C 14.7 °C 1014.1 hPa Calm     87% 0.0 mm 0.00 W/m2
04:25 16.8 °C 14.7 °C 1014.1 hPa Calm     87% 0.0 mm 0.00 W/m2
04:30 16.7 °C 14.6 °C 1014.1 hPa Calm     87% 0.0 mm 0.00 W/m2
04:35 16.7 °C 14.6 °C 1014.1 hPa Calm     87% 0.0 mm 0.00 W/m2
04:40 16.7 °C 14.5 °C 1014.1 hPa Calm     87% 0.0 mm 0.00 W/m2
04:45 16.7 °C 14.5 °C 1014.1 hPa Calm     87% 0.0 mm 0.00 W/m2
04:50 16.7 °C 14.7 °C 1014.1 hPa Calm     88% 0.0 mm 0.00 W/m2
04:55 16.7 °C 14.7 °C 1014.1 hPa Calm     88% 0.0 mm 0.00 W/m2
05:00 16.7 °C 14.7 °C 1014.1 hPa Calm     88% 0.0 mm 0.00 W/m2
05:05 16.7 °C 14.7 °C 1014.1 hPa Calm     88% 0.0 mm 0.00 W/m2
05:10 16.7 °C 14.7 °C 1014.1 hPa Calm     88% 0.0 mm 0.00 W/m2
05:15 16.8 °C 15.0 °C 1014.1 hPa Calm     89% 0.0 mm 0.00 W/m2
05:20 16.8 °C 15.0 °C 1014.1 hPa Calm     89% 0.0 mm 0.00 W/m2
05:25 16.8 °C 15.1 °C 1014.1 hPa Calm     89% 0.0 mm 0.00 W/m2
05:30 16.9 °C 15.1 °C 1014.1 hPa Calm     89% 0.0 mm 0.00 W/m2
05:35 16.9 °C 15.1 °C 1014.2 hPa Calm     89% 0.0 mm 0.00 W/m2
05:40 17.0 °C 15.2 °C 1014.2 hPa Calm     89% 0.0 mm 0.00 W/m2
05:45 17.0 °C 15.2 °C 1014.2 hPa Calm     89% 0.0 mm 0.00 W/m2
05:50 17.1 °C 15.4 °C 1014.2 hPa Calm     90% 0.0 mm 0.00 W/m2
05:55 17.2 °C 15.5 °C 1014.2 hPa Calm     90% 0.0 mm 0.00 W/m2
06:00 17.2 °C 15.5 °C 1014.3 hPa Calm     90% 0.0 mm 0.00 W/m2
06:05 17.3 °C 15.6 °C 1014.3 hPa Calm     90% 0.0 mm 0.00 W/m2
06:10 17.3 °C 15.6 °C 1014.5 hPa Calm     90% 0.0 mm 0.00 W/m2
06:15 17.3 °C 15.7 °C 1014.5 hPa Calm     90% 0.0 mm 0.00 W/m2
06:20 17.3 °C 15.8 °C 1014.6 hPa Calm     91% 0.0 mm 0.00 W/m2
06:25 17.3 °C 15.8 °C 1014.7 hPa Calm     91% 0.0 mm 0.00 W/m2
06:30 17.3 °C 15.8 °C 1014.7 hPa Calm     91% 0.0 mm 0.00 W/m2
06:35 17.4 °C 15.9 °C 1014.8 hPa Calm     91% 0.0 mm 0.00 W/m2
06:40 17.4 °C 15.9 °C 1014.8 hPa Calm     91% 0.0 mm 0.00 W/m2
06:45 17.4 °C 15.9 °C 1014.8 hPa Calm     91% 0.0 mm 5.00 W/m2
06:50 17.4 °C 15.9 °C 1014.9 hPa Calm     91% 0.0 mm 7.00 W/m2
06:55 17.4 °C 15.9 °C 1015.0 hPa Calm     91% 0.0 mm 9.00 W/m2
07:00 17.3 °C 15.8 °C 1015.0 hPa Calm     91% 0.0 mm 11.00 W/m2
07:05 17.4 °C 15.9 °C 1015.1 hPa Calm     91% 0.0 mm 16.00 W/m2
07:10 17.4 °C 15.9 °C 1015.1 hPa Calm     91% 0.0 mm 19.00 W/m2
07:15 17.4 °C 15.9 °C 1015.0 hPa Calm     91% 0.0 mm 23.00 W/m2
07:20 17.4 °C 15.9 °C 1015.0 hPa Calm     91% 0.0 mm 28.00 W/m2
07:25 17.4 °C 15.9 °C 1015.1 hPa Calm     91% 0.0 mm 30.00 W/m2
07:30 17.3 °C 15.8 °C 1015.2 hPa Calm     91% 0.0 mm 39.00 W/m2
07:35 17.3 °C 15.9 °C 1015.2 hPa Calm     91% 0.0 mm 42.00 W/m2
07:40 17.3 °C 15.8 °C 1015.2 hPa Calm     91% 0.0 mm 48.00 W/m2
07:45 17.3 °C 15.8 °C 1015.3 hPa Calm     91% 0.0 mm 53.00 W/m2
07:50 17.4 °C 15.9 °C 1015.3 hPa Calm     91% 0.0 mm 55.00 W/m2
07:55 17.4 °C 15.9 °C 1015.3 hPa Calm     91% 0.0 mm 65.00 W/m2
08:00 17.5 °C 16.0 °C 1015.4 hPa Calm     91% 0.0 mm 70.00 W/m2
08:05 17.6 °C 16.1 °C 1015.6 hPa Calm     91% 0.0 mm 77.00 W/m2
08:10 17.6 °C 16.1 °C 1015.7 hPa Calm     91% 0.0 mm 88.00 W/m2
08:15 17.6 °C 16.1 °C 1015.7 hPa Calm     91% 0.0 mm 102.00 W/m2
08:20 17.7 °C 16.2 °C 1015.7 hPa Calm     91% 0.0 mm 114.00 W/m2
08:25 17.7 °C 16.2 °C 1015.8 hPa Calm     91% 0.0 mm 118.00 W/m2
08:30 17.8 °C 16.3 °C 1015.8 hPa Calm     91% 0.0 mm 128.00 W/m2
08:35 17.8 °C 16.3 °C 1015.8 hPa Calm     91% 0.0 mm 141.00 W/m2
08:40 17.8 °C 16.3 °C 1015.8 hPa Calm     91% 0.0 mm 160.00 W/m2
08:45 17.9 °C 16.4 °C 1015.7 hPa Calm     91% 0.0 mm 174.00 W/m2
08:50 17.9 °C 16.4 °C 1015.8 hPa Calm     91% 0.0 mm 202.00 W/m2
08:55 18.1 °C 16.6 °C 1015.7 hPa Calm     91% 0.0 mm 283.00 W/m2
09:00 18.1 °C 16.6 °C 1015.7 hPa Calm     91% 0.0 mm 491.00 W/m2
09:05 18.2 °C 16.7 °C 1015.7 hPa Calm     91% 0.0 mm 465.00 W/m2
09:10 18.3 °C 16.8 °C 1015.7 hPa Calm     91% 0.0 mm 440.00 W/m2
09:15 18.4 °C 16.9 °C 1015.7 hPa Calm   4.8 km/h 91% 0.0 mm 438.00 W/m2
09:20 18.5 °C 17.0 °C 1015.6 hPa ENE 1.6 km/h 4.8 km/h 91% 0.0 mm 454.00 W/m2
09:25 18.6 °C 17.1 °C 1015.6 hPa Calm     91% 0.0 mm 465.00 W/m2
09:30 18.7 °C 17.0 °C 1015.6 hPa Calm   4.8 km/h 90% 0.0 mm 479.00 W/m2
09:35 18.8 °C 17.1 °C 1015.6 hPa ENE 1.6 km/h 4.8 km/h 90% 0.0 mm 491.00 W/m2
09:40 18.9 °C 17.1 °C 1015.6 hPa Calm   8.0 km/h 89% 0.0 mm 503.00 W/m2
09:45 18.9 °C 16.9 °C 1015.7 hPa NNE 3.2 km/h 8.0 km/h 88% 0.0 mm 517.00 W/m2
Juneau County Weather
Compliments of Weather Underground - 2 mb